Scroll down
FLIGHT INFORMATION
Federal Express (FedEx)

FDX1

At Arrival Gate

EGGS
 KMEM
DATE: 2022-07-28
GATE: 
GATE DEPARTURE: 19:50
TAKEOFF: 20:00
DATE: 2022-07-29
GATE:  -
LANDING: 04:52
GATE ARRIVAL: 05:00
FLIGHT DATA
Crew: 
Speed: 
505 kts
Altitude: 
38,272 ft
Stage Length: 
5,402.5 nm
Block Time: 
9.1 hrs
Flight Time: 
8.9 hrs
Fuel Used: 
140,772 lb
Cleared Route: EGSS UTAVA BUZAD OLNEY WELIN AKUPA TIMPO ELVOS TNT RODOL TENSO BELOX REMSI GOMUP 5920N 6030N 6040N 5950N AVUTI YDP PUVOK VANSI GRAMP YTS SSM TVC PECOK UFDUH BITTR ADALE WLTER PMM GIJ BVT PXV KMEM
TRACK DATA
50,000 ft 1,000 kts
AIRCRAFT INFO AND CUMULATIVE STATS
Aircraft Type: 
B77LF
Registration: 
SELCAL: 
MSN/LN: 
40671 / 1614
Total Flights: 
3
Total Block Time: 
12 hrs
Total Flight Time: 
11.2 hrs
Total Fuel Used: 
179,192 lb
DATALINK LOG | Newest first | Current as of: 2022-08-16 06:25:57
LABEL SEQUENCE CONTENT Dn/Up
QD052605:00 17.5▼ Dn
QC571904:52▼ Dn
UM2125515KMEM ATIS - MEM ATIS INFO B 2217Z SPECIAL. VRB06KT 3SM -RA BKN036CB BKN047 BKN100 BKN250 31/23 A2997 (TWO NINER NINER SEVEN) RMK AO2 PK WND 29027/2157 LTG DSNT NE AND E AND SW RAB10 CB W MOV E P0000. ILS APCH IN USE RY 18C, 27. SIMUL DEPS IN USE RY 18R 18C 18L. NOTAM. THE ONE HUNDRED EIGHTY FOOT CRANE NORTH OF RWY 27 IS DOWN. TWY N CLSD BTN TWY P AND TWY M1 ; TWY J CLSD BTN TWY E AND TWY R ; TWY S CLSD BTN TWY S1 AND TWY R . RWY 36R GS OTS. RWY 36C PAPEE OTS. RWY 18L PAPPE OTS. WIND SHEAR ADZYS IN EFCT. BIRD ACTIVITY RPTD IN THE VC OF THE ARPT. MICRO BURST ADVISORY. READBACK ALL RWY * HOLD SHORT INSTRUCTIONS. RECAT WAKE TURBULENCE SEPARATION STANDARDS IN EFFECT. ALL ACFT CTC GC FOR PUSHBACK ONTO TWY N OR TWY J.. ...ADVS YOU HAVE INFO B.▲ Up
DM795505 ATIS KMEM A▼ Dn
UM205840CLEARED TO FL 360▲ Up
DM65830REQUEST FL 360 DUE TO A/C PERF▼ Dn
UM791049NO MATCHING FLIGHT DATA AVAILABLE FROM ANSP▲ Up
UM251049REQUESTING OCEANIC CLRNC CT EGGX CS EP GOMUP FL 340 ETA 21:06 SPD M0.84▼ Dn
QB074620:00▼ Dn
QA573519:50 158.3▼ Dn
A33817NO MATCHING FLIGHT DATA AVAILABLE FROM ANSP▲ Up
B33816EGSS KMEM FDX1 N865FD ▼ Dn
2U3617KNQA 281350Z 00000KT 10SM FEW032 SCT043 BKN110 23/22 A3001▲ Up
2U3616KMEM 281354Z VRB04KT 10SM FEW030 SCT050 SCT160 BKN250 31/21 A3003 RMK AO2 SLP163 CB DSNT NW-N T03110211▲ Up
2U3616CYYT 281400Z 10008KT 070V140 15SM FEW022 FEW220 21/15 A2984 RMK CU1CI1 SLP107 DENSITY ALT 1400FT▲ Up
2U3615EGSS 281420Z AUTO 12011KT 9999 NCD 22/08 Q1017▲ Up
2U3615EGPK 281420Z 18013KT 9000 -RA FEW025 SCT030 BKN040 16/12 Q1017▲ Up
2S3615EGSS KMEM KNQA EGPK CYYT▼ Dn
A73514CLEARANCE AVAIL WITHIN 0:25 OF EDT▲ Up
B33513EGSS KMEM FDX1 N865FD ▼ Dn
Q03413[LINK ACK]▲ Up
Q03413[LINK TEST]▼ Dn


AIRCRAFT HISTORY
FLIGHT DATE FLIGHT NO. ORIGIN DESTINATION CLEARED ROUTE BLOCK TIME FLIGHT TIME FUEL USED PILOT
2022-07-30FDX1299KIAH KMEM KIAH DREMR TXK KMEM1.5 hrs1.2 hrs19,692 lbAllan Burek
2022-07-29FDX527KMEM KIAH KMEM IBUFY IZAAC AEX KIAH1.4 hrs1.2 hrs18,729 lbAllan Burek
2022-07-28FDX1EGGS KMEM EGSS UTAVA BUZAD OLNEY WELIN AKUPA TIMPO ELVOS TNT RODOL TENSO BELOX REMSI GOMUP 5920N 6030N 6040N 5950N AVUTI YDP PUVOK VANSI GRAMP YTS SSM TVC PECOK UFDUH BITTR ADALE WLTER PMM GIJ BVT PXV KMEM9.1 hrs8.9 hrs140,772 lbAllan Burek